createdAt,value
2023-05-18T00:00:38.897Z,41.18
2023-05-18T00:01:40.027Z,41.83
2023-05-18T00:02:40.073Z,41.17
2023-05-18T00:03:40.113Z,45.33
2023-05-18T00:04:40.078Z,40.27
2023-05-18T00:05:39.980Z,38.31
2023-05-18T00:06:39.970Z,44.26
2023-05-18T00:07:39.960Z,41.42
2023-05-18T00:08:39.974Z,40.96
2023-05-18T00:09:39.947Z,40.21
2023-05-18T00:10:39.947Z,46.17
2023-05-18T00:11:39.919Z,41.90
2023-05-18T00:12:39.936Z,40.61
2023-05-18T00:13:39.916Z,49.49
2023-05-18T00:14:39.925Z,44.01
2023-05-18T00:15:39.904Z,48.28
2023-05-18T00:16:39.968Z,51.47
2023-05-18T00:17:39.899Z,42.64
2023-05-18T00:18:39.949Z,41.91
2023-05-18T00:19:39.842Z,47.48
2023-05-18T00:20:39.829Z,41.05
2023-05-18T00:21:39.867Z,44.76
2023-05-18T00:22:39.860Z,40.22
2023-05-18T00:23:39.807Z,41.23
2023-05-18T00:24:39.817Z,49.16
2023-05-18T00:25:39.801Z,41.21
2023-05-18T00:26:39.803Z,46.54
2023-05-18T00:27:39.768Z,40.13
2023-05-18T00:28:39.769Z,45.31
2023-05-18T00:29:39.754Z,50.95
2023-05-18T00:30:39.747Z,44.18
2023-05-18T00:31:39.753Z,43.00
2023-05-18T00:32:39.771Z,40.57
2023-05-18T00:33:39.719Z,44.77
2023-05-18T00:34:39.708Z,41.80
2023-05-18T00:35:39.703Z,40.36
2023-05-18T00:36:39.672Z,40.16
2023-05-18T00:37:40.672Z,40.04
2023-05-18T00:38:39.654Z,40.27
2023-05-18T00:39:39.722Z,40.05
2023-05-18T00:40:39.640Z,40.05
2023-05-18T00:41:39.651Z,40.12
2023-05-18T00:42:39.617Z,39.29
2023-05-18T00:43:39.630Z,39.52
2023-05-18T00:44:39.629Z,39.64
2023-05-18T00:45:39.615Z,40.56
2023-05-18T00:46:39.589Z,40.23
2023-05-18T00:47:39.603Z,41.91
2023-05-18T00:48:39.556Z,40.46
2023-05-18T00:49:39.541Z,41.08
2023-05-18T00:50:39.525Z,40.70
2023-05-18T00:51:39.531Z,40.15
2023-05-18T00:52:39.521Z,39.85
2023-05-18T00:53:39.748Z,41.06
2023-05-18T00:54:39.494Z,39.75
2023-05-18T00:55:39.496Z,44.51
2023-05-18T00:56:39.565Z,44.69
2023-05-18T00:57:39.502Z,40.50
2023-05-18T00:58:39.480Z,40.83
2023-05-18T00:59:39.477Z,40.34
2023-05-18T01:00:39.457Z,41.33
2023-05-18T01:01:39.503Z,44.94
2023-05-18T01:02:40.513Z,41.05
2023-05-18T01:03:39.534Z,40.32
2023-05-18T01:04:39.394Z,39.25
2023-05-18T01:05:39.417Z,44.20
2023-05-18T01:06:39.383Z,42.04
2023-05-18T01:07:39.375Z,40.78
2023-05-18T01:08:39.399Z,40.66
2023-05-18T01:09:39.336Z,39.52
2023-05-18T01:10:39.352Z,38.91
2023-05-18T01:11:39.391Z,44.09
2023-05-18T01:12:39.345Z,39.56
2023-05-18T01:13:39.318Z,39.41
2023-05-18T01:14:39.309Z,39.09
2023-05-18T01:15:39.331Z,38.65
2023-05-18T01:16:39.278Z,38.36
2023-05-18T01:17:39.304Z,38.65
2023-05-18T01:18:39.287Z,39.07
2023-05-18T01:19:39.265Z,41.63
2023-05-18T01:20:39.278Z,43.14
2023-05-18T01:21:39.256Z,42.57
2023-05-18T01:22:39.228Z,44.72
2023-05-18T01:23:39.217Z,45.56
2023-05-18T01:24:39.201Z,39.47
2023-05-18T01:25:39.189Z,39.78
2023-05-18T01:26:39.178Z,40.57
2023-05-18T01:27:39.148Z,44.90
2023-05-18T01:28:39.145Z,41.03
2023-05-18T01:29:39.178Z,41.13
2023-05-18T01:30:39.165Z,41.10
2023-05-18T01:31:39.130Z,41.39
2023-05-18T01:32:39.151Z,42.00
2023-05-18T01:33:39.111Z,40.98
2023-05-18T01:34:39.101Z,40.98
2023-05-18T01:35:39.088Z,44.15
2023-05-18T01:36:39.092Z,40.58
2023-05-18T01:37:39.074Z,40.33
2023-05-18T01:38:39.393Z,40.82
2023-05-18T01:39:39.047Z,41.28
2023-05-18T01:40:39.040Z,40.33
2023-05-18T01:41:39.033Z,40.58
2023-05-18T01:42:39.018Z,40.74
2023-05-18T01:43:39.045Z,40.04
2023-05-18T01:44:39.016Z,40.50
2023-05-18T01:45:38.990Z,40.84
2023-05-18T01:46:39.017Z,41.27
2023-05-18T01:47:39.029Z,40.34
2023-05-18T01:48:38.975Z,40.85
2023-05-18T01:49:38.966Z,40.05
2023-05-18T01:50:38.973Z,39.03
2023-05-18T01:51:38.981Z,39.18
2023-05-18T01:52:38.954Z,39.26
2023-05-18T01:53:38.931Z,42.52
2023-05-18T01:54:38.930Z,39.50
2023-05-18T01:55:38.917Z,40.39
2023-05-18T01:56:38.909Z,44.65
2023-05-18T01:57:38.921Z,40.16
2023-05-18T01:58:38.886Z,43.38
2023-05-18T01:59:38.894Z,39.79
2023-05-18T02:00:38.855Z,40.49
2023-05-18T02:01:38.880Z,41.35
2023-05-18T02:02:38.993Z,44.40
2023-05-18T02:03:38.974Z,40.09
2023-05-18T02:04:38.830Z,39.87
2023-05-18T02:05:38.819Z,40.74
2023-05-18T02:06:38.827Z,40.05
2023-05-18T02:07:38.817Z,40.20
2023-05-18T02:08:38.791Z,39.48
2023-05-18T02:09:38.771Z,39.68
2023-05-18T02:10:38.760Z,39.34
2023-05-18T02:11:38.756Z,39.37
2023-05-18T02:12:38.733Z,39.83
2023-05-18T02:13:38.717Z,40.52
2023-05-18T02:14:38.755Z,39.98
2023-05-18T02:15:38.731Z,39.70
2023-05-18T02:16:38.770Z,39.27
2023-05-18T02:17:38.720Z,39.16
2023-05-18T02:18:39.719Z,39.52
2023-05-18T02:19:38.702Z,39.59
2023-05-18T02:20:38.638Z,39.40
2023-05-18T02:21:38.645Z,39.51
2023-05-18T02:22:38.635Z,40.18
2023-05-18T02:23:38.710Z,41.24
2023-05-18T02:24:38.607Z,40.83
2023-05-18T02:25:38.610Z,41.28
2023-05-18T02:26:38.586Z,41.98
2023-05-18T02:27:38.585Z,42.75
2023-05-18T02:28:38.580Z,48.89
2023-05-18T02:29:38.557Z,42.48
2023-05-18T02:30:38.570Z,45.20
2023-05-18T02:31:38.588Z,47.15
2023-05-18T02:32:38.678Z,47.12
2023-05-18T02:33:38.538Z,47.36
2023-05-18T02:34:38.501Z,50.19
2023-05-18T02:35:38.496Z,47.04
2023-05-18T02:36:38.502Z,47.26
2023-05-18T02:37:38.468Z,47.65
2023-05-18T02:38:38.504Z,46.00
2023-05-18T02:39:38.501Z,50.19
2023-05-18T02:40:38.480Z,50.97
2023-05-18T02:41:38.454Z,51.55
2023-05-18T02:42:38.423Z,52.69
2023-05-18T02:43:38.406Z,51.79
2023-05-18T02:44:38.430Z,54.14
2023-05-18T02:45:38.412Z,51.04
2023-05-18T02:46:38.411Z,53.20
2023-05-18T02:47:38.405Z,52.42
2023-05-18T02:48:38.368Z,49.28
2023-05-18T02:49:38.403Z,54.25
2023-05-18T02:50:38.371Z,53.40
2023-05-18T02:51:38.351Z,54.09
2023-05-18T02:52:38.362Z,54.06
2023-05-18T02:53:38.371Z,48.51
2023-05-18T02:54:38.366Z,51.04
2023-05-18T02:55:38.373Z,52.06
2023-05-18T02:56:38.312Z,49.68
2023-05-18T02:57:38.289Z,49.43
2023-05-18T02:58:38.294Z,49.78
2023-05-18T02:59:38.302Z,48.84
2023-05-18T03:00:38.290Z,50.94
2023-05-18T03:01:38.278Z,55.52
2023-05-18T03:02:38.396Z,49.83
2023-05-18T03:03:38.292Z,49.57
2023-05-18T03:04:38.243Z,51.32
2023-05-18T03:05:38.208Z,49.32
2023-05-18T03:06:38.223Z,49.33
2023-05-18T03:07:38.210Z,49.98
2023-05-18T03:08:39.206Z,49.15
2023-05-18T03:09:38.186Z,49.36
2023-05-18T03:10:38.184Z,49.61
2023-05-18T03:11:38.164Z,50.37
2023-05-18T03:12:38.184Z,50.34
2023-05-18T03:13:38.134Z,50.32
2023-05-18T03:14:39.158Z,49.22
2023-05-18T03:15:38.163Z,47.53
2023-05-18T03:16:38.257Z,47.69
2023-05-18T03:17:38.210Z,48.53
2023-05-18T03:18:38.148Z,50.16
2023-05-18T03:19:38.112Z,50.85
2023-05-18T03:20:38.108Z,49.59
2023-05-18T03:21:38.080Z,49.25
2023-05-18T03:22:38.076Z,49.71
2023-05-18T03:23:38.073Z,51.45
2023-05-18T03:24:38.057Z,49.68
2023-05-18T03:25:38.048Z,49.56
2023-05-18T03:26:38.037Z,48.47
2023-05-18T03:27:38.049Z,48.89
2023-05-18T03:28:37.995Z,49.36
2023-05-18T03:29:38.012Z,48.75
2023-05-18T03:30:37.989Z,51.68
2023-05-18T03:31:38.057Z,48.78
2023-05-18T03:32:38.074Z,48.79
2023-05-18T03:33:37.941Z,49.15
2023-05-18T03:34:37.942Z,48.93
2023-05-18T03:35:38.003Z,49.70
2023-05-18T03:36:37.925Z,49.52
2023-05-18T03:37:37.966Z,48.78
2023-05-18T03:38:37.898Z,48.14
2023-05-18T03:39:37.912Z,46.73
2023-05-18T03:40:37.895Z,45.94
2023-05-18T03:41:37.897Z,47.98
2023-05-18T03:42:37.884Z,48.02
2023-05-18T03:43:37.881Z,46.80
2023-05-18T03:44:37.846Z,48.01
2023-05-18T03:45:37.883Z,47.67
2023-05-18T03:46:37.847Z,48.74
2023-05-18T03:47:37.848Z,48.65
2023-05-18T03:48:37.829Z,46.22
2023-05-18T03:49:37.813Z,47.82
2023-05-18T03:50:37.848Z,48.10
2023-05-18T03:51:37.779Z,47.80
2023-05-18T03:52:37.779Z,48.21
2023-05-18T03:53:37.775Z,47.73
2023-05-18T03:54:37.768Z,46.92
2023-05-18T03:55:37.765Z,47.75
2023-05-18T03:56:37.720Z,48.86
2023-05-18T03:57:37.740Z,48.53
2023-05-18T03:58:38.698Z,48.91
2023-05-18T03:59:37.727Z,48.44
2023-05-18T04:00:37.703Z,48.55
2023-05-18T04:01:37.727Z,48.02
2023-05-18T04:02:37.796Z,48.36
2023-05-18T04:03:37.757Z,49.31
2023-05-18T04:04:37.643Z,48.56
2023-05-18T04:05:37.622Z,49.33
2023-05-18T04:06:37.668Z,46.59
2023-05-18T04:07:37.628Z,46.08
2023-05-18T04:08:37.682Z,45.75
2023-05-18T04:09:37.623Z,48.17
2023-05-18T04:10:37.576Z,52.13
2023-05-18T04:11:37.574Z,47.38
2023-05-18T04:12:37.575Z,47.55
2023-05-18T04:13:37.573Z,49.23
2023-05-18T04:14:37.565Z,48.62
2023-05-18T04:15:37.557Z,48.97
2023-05-18T04:16:37.558Z,49.59
2023-05-18T04:17:37.549Z,51.05
2023-05-18T04:18:37.558Z,45.85
2023-05-18T04:19:37.542Z,45.90
2023-05-18T04:20:37.486Z,45.53
2023-05-18T04:21:37.512Z,46.14
2023-05-18T04:22:37.467Z,47.00
2023-05-18T04:23:37.477Z,45.19
2023-05-18T04:24:37.446Z,46.97
2023-05-18T04:25:37.464Z,43.16
2023-05-18T04:26:37.419Z,46.74
2023-05-18T04:27:37.433Z,50.20
2023-05-18T04:28:37.572Z,51.40
2023-05-18T04:29:37.416Z,49.98
2023-05-18T04:30:37.410Z,49.07
2023-05-18T04:31:37.467Z,51.26
2023-05-18T04:32:37.399Z,48.78
2023-05-18T04:33:37.380Z,49.96
2023-05-18T04:34:37.363Z,48.50
2023-05-18T04:35:37.362Z,49.90
2023-05-18T04:36:37.353Z,46.48
2023-05-18T04:37:37.343Z,48.30
2023-05-18T04:38:37.334Z,44.14
2023-05-18T04:39:37.319Z,49.70
2023-05-18T04:40:37.321Z,47.88
2023-05-18T04:41:37.312Z,48.52
2023-05-18T04:42:37.333Z,53.40
2023-05-18T04:43:37.267Z,52.66
2023-05-18T04:44:37.276Z,51.68
2023-05-18T04:45:37.327Z,50.96
2023-05-18T04:46:37.259Z,51.49
2023-05-18T04:47:37.277Z,50.80
2023-05-18T04:48:37.206Z,50.54
2023-05-18T04:49:37.212Z,50.58
2023-05-18T04:50:37.245Z,51.15
2023-05-18T04:51:37.190Z,48.40
2023-05-18T04:52:37.191Z,52.26
2023-05-18T04:53:37.169Z,50.33
2023-05-18T04:54:37.158Z,51.92
2023-05-18T04:55:37.153Z,47.96
2023-05-18T04:56:37.174Z,49.78
2023-05-18T04:57:37.140Z,47.80
2023-05-18T04:58:37.134Z,47.25
2023-05-18T04:59:37.106Z,44.74
2023-05-18T05:00:37.113Z,47.61
2023-05-18T05:01:37.111Z,46.83
2023-05-18T05:02:37.126Z,47.20
2023-05-18T05:03:37.148Z,46.67
2023-05-18T05:04:37.076Z,47.82
2023-05-18T05:05:37.030Z,51.72
2023-05-18T05:06:37.051Z,52.26
2023-05-18T05:07:37.015Z,48.12
2023-05-18T05:08:37.007Z,43.20
2023-05-18T05:09:36.999Z,48.04
2023-05-18T05:10:36.999Z,48.14
2023-05-18T05:11:36.996Z,50.89
2023-05-18T05:12:36.990Z,51.29
2023-05-18T05:13:36.970Z,47.69
2023-05-18T05:14:36.951Z,48.72
2023-05-18T05:15:36.961Z,50.17
2023-05-18T05:16:36.951Z,48.14
2023-05-18T05:17:37.006Z,50.13
2023-05-18T05:18:36.941Z,47.67
2023-05-18T05:19:36.914Z,48.03
2023-05-18T05:20:36.914Z,51.29
2023-05-18T05:21:36.897Z,49.81
2023-05-18T05:22:36.969Z,48.55
2023-05-18T05:23:36.850Z,49.35
2023-05-18T05:24:36.839Z,50.46
2023-05-18T05:25:36.847Z,48.93
2023-05-18T05:26:36.827Z,48.63
2023-05-18T05:27:36.808Z,54.26
2023-05-18T05:28:36.785Z,48.76
2023-05-18T05:29:36.783Z,48.75
2023-05-18T05:30:36.799Z,48.25
2023-05-18T05:31:36.814Z,49.90
2023-05-18T05:32:36.962Z,50.64
2023-05-18T05:33:36.751Z,49.92
2023-05-18T05:34:36.788Z,53.80
2023-05-18T05:35:37.044Z,48.88
2023-05-18T05:36:36.749Z,49.47
2023-05-18T05:37:36.732Z,48.82
2023-05-18T05:38:36.717Z,48.04
2023-05-18T05:39:36.714Z,46.74
2023-05-18T05:40:36.672Z,45.14
2023-05-18T05:41:36.691Z,51.65
2023-05-18T05:42:36.704Z,49.80
2023-05-18T05:43:36.669Z,48.44
2023-05-18T05:44:36.673Z,48.75
2023-05-18T05:45:36.656Z,44.75
2023-05-18T05:46:36.742Z,52.51
2023-05-18T05:47:36.667Z,46.75
2023-05-18T05:48:36.610Z,51.78
2023-05-18T05:49:36.636Z,46.64
2023-05-18T05:50:36.586Z,49.11
2023-05-18T05:51:36.560Z,50.80
2023-05-18T05:52:36.592Z,52.69
2023-05-18T05:53:36.572Z,52.07
2023-05-18T05:54:36.545Z,47.43
2023-05-18T05:55:36.528Z,48.70
2023-05-18T05:56:36.517Z,49.74
2023-05-18T05:57:36.514Z,49.28
2023-05-18T05:58:36.506Z,52.73
2023-05-18T05:59:36.503Z,52.96
2023-05-18T06:00:36.479Z,50.12
2023-05-18T06:01:36.473Z,50.63
2023-05-18T06:02:36.729Z,51.30
2023-05-18T06:03:36.522Z,44.47
2023-05-18T06:04:36.580Z,48.23
2023-05-18T06:05:36.426Z,49.04
2023-05-18T06:06:36.421Z,51.69
2023-05-18T06:07:36.412Z,52.03
2023-05-18T06:08:36.400Z,48.51
2023-05-18T06:09:36.385Z,48.89
2023-05-18T06:10:36.371Z,48.56
2023-05-18T06:11:36.363Z,47.54
2023-05-18T06:12:36.365Z,48.78
2023-05-18T06:13:36.360Z,51.22
2023-05-18T06:14:36.335Z,45.56
2023-05-18T06:15:36.322Z,47.54
2023-05-18T06:16:36.360Z,40.50
2023-05-18T06:17:36.326Z,44.39
2023-05-18T06:18:36.390Z,52.67
2023-05-18T06:19:36.279Z,44.42
2023-05-18T06:20:36.287Z,43.32
2023-05-18T06:21:36.270Z,47.78
2023-05-18T06:22:36.263Z,51.71
2023-05-18T06:23:36.242Z,45.69
2023-05-18T06:24:36.242Z,43.95
2023-05-18T06:25:36.232Z,47.62
2023-05-18T06:26:36.217Z,43.07
2023-05-18T06:27:36.209Z,46.92
2023-05-18T06:28:36.183Z,47.21
2023-05-18T06:29:36.183Z,43.08
2023-05-18T06:30:36.183Z,48.32
2023-05-18T06:31:36.180Z,50.30
2023-05-18T06:32:36.158Z,48.15
2023-05-18T06:33:37.174Z,46.96
2023-05-18T06:34:36.127Z,47.05
2023-05-18T06:35:36.147Z,47.49
2023-05-18T06:36:36.124Z,49.50
2023-05-18T06:37:36.100Z,49.87
2023-05-18T06:38:36.134Z,52.53
2023-05-18T06:39:36.072Z,51.36
2023-05-18T06:40:36.094Z,47.11
2023-05-18T06:41:36.064Z,45.08
2023-05-18T06:42:36.044Z,47.25
2023-05-18T06:43:36.042Z,47.30
2023-05-18T06:44:36.044Z,44.67
2023-05-18T06:45:37.310Z,48.06
2023-05-18T06:46:37.093Z,40.11
2023-05-18T06:47:36.111Z,46.26
2023-05-18T06:48:35.993Z,43.82
2023-05-18T06:49:35.985Z,44.77
2023-05-18T06:50:35.979Z,43.50
2023-05-18T06:51:35.956Z,43.35
2023-05-18T06:52:35.953Z,39.64
2023-05-18T06:53:35.933Z,39.20
2023-05-18T06:54:36.603Z,42.95
2023-05-18T06:55:36.749Z,46.68
2023-05-18T06:56:35.900Z,44.12
2023-05-18T06:57:35.887Z,45.41
2023-05-18T06:58:35.960Z,47.84
2023-05-18T06:59:36.331Z,47.63
2023-05-18T07:00:36.444Z,39.61
2023-05-18T07:01:35.917Z,39.49
2023-05-18T07:02:35.918Z,44.80
2023-05-18T07:03:35.892Z,40.57
2023-05-18T07:04:35.817Z,44.21
2023-05-18T07:05:39.209Z,47.67
2023-05-18T07:06:36.781Z,39.63
2023-05-18T07:07:35.792Z,43.79
2023-05-18T07:08:35.823Z,44.81
2023-05-18T07:09:35.802Z,48.51
2023-05-18T07:10:35.761Z,47.17
2023-05-18T07:11:35.742Z,46.69
2023-05-18T07:12:35.721Z,48.49
2023-05-18T07:13:35.728Z,48.42
2023-05-18T07:14:35.703Z,47.71
2023-05-18T07:15:35.785Z,45.64
2023-05-18T07:16:35.820Z,48.23
2023-05-18T07:17:35.706Z,44.17
2023-05-18T07:18:35.740Z,46.28
2023-05-18T07:19:35.644Z,44.29
2023-05-18T07:20:35.651Z,41.38
2023-05-18T07:21:35.627Z,42.69
2023-05-18T07:22:35.623Z,50.19
2023-05-18T07:23:35.805Z,50.60
2023-05-18T07:25:09.780Z,44.24
2023-05-18T07:25:35.609Z,50.17
2023-05-18T07:26:35.601Z,45.09
2023-05-18T07:27:35.592Z,44.73
2023-05-18T07:28:35.585Z,46.72
2023-05-18T07:29:35.555Z,38.70
2023-05-18T07:30:35.537Z,39.99
2023-05-18T07:31:35.562Z,48.08
2023-05-18T07:32:35.597Z,50.32
2023-05-18T07:33:35.537Z,50.76
2023-05-18T07:34:35.557Z,51.16
2023-05-18T07:35:35.536Z,43.97
2023-05-18T07:36:35.497Z,53.10
2023-05-18T07:37:35.519Z,49.61
2023-05-18T07:38:35.488Z,42.95
2023-05-18T07:39:35.489Z,43.79
2023-05-18T07:40:35.461Z,42.91
2023-05-18T07:41:35.458Z,45.11
2023-05-18T07:42:35.450Z,45.33
2023-05-18T07:43:35.426Z,45.28
2023-05-18T07:44:35.418Z,42.90
2023-05-18T07:45:35.430Z,54.59
2023-05-18T07:46:35.440Z,58.62
2023-05-18T07:47:35.450Z,46.86
2023-05-18T07:48:35.389Z,50.92
2023-05-18T07:49:35.373Z,50.47
2023-05-18T07:50:35.373Z,47.46
2023-05-18T07:51:35.374Z,46.93
2023-05-18T07:52:35.393Z,48.70
2023-05-18T07:53:35.335Z,48.83
2023-05-18T07:54:35.323Z,46.87
2023-05-18T07:55:35.316Z,42.75
2023-05-18T07:56:35.313Z,46.98
2023-05-18T07:57:35.307Z,49.16
2023-05-18T07:58:35.325Z,47.98
2023-05-18T07:59:35.293Z,47.48
2023-05-18T08:00:35.270Z,44.49
2023-05-18T08:01:35.370Z,48.54
2023-05-18T08:02:35.296Z,52.99
2023-05-18T08:03:35.288Z,48.76
2023-05-18T08:04:35.225Z,48.89
2023-05-18T08:05:35.209Z,48.60
2023-05-18T08:06:35.214Z,44.87
2023-05-18T08:07:35.197Z,50.10
2023-05-18T08:08:35.197Z,47.46
2023-05-18T08:09:35.173Z,44.27
2023-05-18T08:10:35.230Z,44.55
2023-05-18T08:11:35.184Z,44.53
2023-05-18T08:12:35.145Z,45.78
2023-05-18T08:13:35.125Z,41.03
2023-05-18T08:14:35.115Z,43.26
2023-05-18T08:15:35.121Z,47.88
2023-05-18T08:16:35.179Z,49.87
2023-05-18T08:17:36.117Z,44.69
2023-05-18T08:18:35.089Z,46.14
2023-05-18T08:19:36.055Z,50.09
2023-05-18T08:20:35.077Z,52.12
2023-05-18T08:21:35.041Z,48.60
2023-05-18T08:22:35.044Z,45.13
2023-05-18T08:23:35.025Z,46.21
2023-05-18T08:24:35.029Z,45.26
2023-05-18T08:25:35.026Z,45.17
2023-05-18T08:26:35.005Z,41.34
2023-05-18T08:27:35.007Z,50.67
2023-05-18T08:28:35.006Z,43.77
2023-05-18T08:29:34.981Z,51.51
2023-05-18T08:30:34.960Z,48.08
2023-05-18T08:31:35.031Z,41.60
2023-05-18T08:32:34.956Z,40.30
2023-05-18T08:33:34.923Z,43.25
2023-05-18T08:34:34.968Z,44.17
2023-05-18T08:35:34.932Z,48.41
2023-05-18T08:36:34.880Z,51.04
2023-05-18T08:37:34.876Z,39.11
2023-05-18T08:38:34.866Z,43.55
2023-05-18T08:39:34.894Z,45.11
2023-05-18T08:40:34.852Z,47.62
2023-05-18T08:41:34.823Z,44.03
2023-05-18T08:42:48.662Z,40.91
2023-05-18T08:43:36.816Z,45.83
2023-05-18T08:44:34.814Z,44.11
2023-05-18T08:45:34.795Z,41.75
2023-05-18T08:46:34.789Z,43.44
2023-05-18T08:47:34.843Z,53.64
2023-05-18T08:48:34.852Z,45.72
2023-05-18T08:49:34.763Z,42.41
2023-05-18T08:50:34.751Z,44.63
2023-05-18T08:51:34.745Z,40.95
2023-05-18T08:52:34.730Z,44.73
2023-05-18T08:53:34.738Z,42.99
2023-05-18T08:54:34.705Z,49.26
2023-05-18T08:55:34.678Z,50.22
2023-05-18T08:56:34.722Z,48.63
2023-05-18T08:57:34.679Z,39.86
2023-05-18T08:58:34.660Z,43.51
2023-05-18T08:59:35.678Z,44.65
2023-05-18T09:00:35.106Z,38.67
2023-05-18T09:01:34.686Z,45.03
2023-05-18T09:02:34.677Z,39.07
2023-05-18T09:03:34.608Z,49.02
2023-05-18T09:04:34.616Z,44.81
2023-05-18T09:05:35.061Z,43.32
2023-05-18T09:06:34.581Z,43.45
2023-05-18T09:07:34.594Z,43.30
2023-05-18T09:08:34.556Z,44.30
2023-05-18T09:09:34.546Z,45.09
2023-05-18T09:10:34.544Z,44.93
2023-05-18T09:11:34.567Z,42.79
2023-05-18T09:12:34.520Z,38.09
2023-05-18T09:13:34.512Z,37.78
2023-05-18T09:14:34.491Z,41.14
2023-05-18T09:15:34.474Z,41.68
2023-05-18T09:16:34.625Z,45.02
2023-05-18T09:17:34.460Z,45.97
2023-05-18T09:18:34.546Z,44.60
2023-05-18T09:19:34.444Z,46.00
2023-05-18T09:20:34.428Z,42.40
2023-05-18T09:21:34.430Z,41.63
2023-05-18T09:22:34.405Z,42.56
2023-05-18T09:23:34.408Z,48.95
2023-05-18T09:24:34.402Z,44.27
2023-05-18T09:25:34.386Z,38.70
2023-05-18T09:26:34.379Z,48.35
2023-05-18T09:27:34.371Z,47.37
2023-05-18T09:28:34.335Z,47.48
2023-05-18T09:29:34.353Z,43.60
2023-05-18T09:30:34.351Z,41.44
2023-05-18T09:31:34.387Z,41.76
2023-05-18T09:32:34.324Z,40.13
2023-05-18T09:33:34.387Z,43.92
2023-05-18T09:34:34.294Z,42.35
2023-05-18T09:35:34.581Z,44.71
2023-05-18T09:36:34.267Z,42.58
2023-05-18T09:37:34.262Z,46.70
2023-05-18T09:38:34.248Z,48.59
2023-05-18T09:39:34.247Z,44.95
2023-05-18T09:40:34.235Z,40.06
2023-05-18T09:41:34.223Z,43.53
2023-05-18T09:42:34.213Z,45.48
2023-05-18T09:43:34.202Z,50.37
2023-05-18T09:44:34.198Z,42.16
2023-05-18T09:45:34.174Z,39.81
2023-05-18T09:46:34.234Z,45.68
2023-05-18T09:47:34.166Z,46.42
2023-05-18T09:48:34.151Z,46.66
2023-05-18T09:49:34.161Z,45.33
2023-05-18T09:50:34.142Z,44.82
2023-05-18T09:51:34.130Z,44.57
2023-05-18T09:52:34.112Z,46.10
2023-05-18T09:53:34.116Z,45.56
2023-05-18T09:54:34.097Z,43.49
2023-05-18T09:55:35.094Z,43.13
2023-05-18T09:56:34.064Z,41.61
2023-05-18T09:57:34.058Z,44.78
2023-05-18T09:58:34.070Z,48.90
2023-05-18T09:59:34.057Z,47.21
2023-05-18T10:00:34.070Z,45.76
2023-05-18T10:01:34.093Z,46.68
2023-05-18T10:02:34.066Z,50.07
2023-05-18T10:03:34.019Z,48.26
2023-05-18T10:04:34.025Z,50.34
2023-05-18T10:05:35.732Z,46.73
2023-05-18T10:06:34.971Z,44.09
2023-05-18T10:07:33.966Z,48.02
2023-05-18T10:08:33.952Z,46.53
2023-05-18T10:09:33.939Z,41.70
2023-05-18T10:10:33.967Z,44.17
2023-05-18T10:11:33.930Z,41.98
2023-05-18T10:12:33.933Z,40.13
2023-05-18T10:13:33.896Z,42.41
2023-05-18T10:14:33.896Z,51.44
2023-05-18T10:15:33.884Z,43.97
2023-05-18T10:16:33.898Z,44.82
2023-05-18T10:17:33.961Z,43.91
2023-05-18T10:18:33.965Z,43.62
2023-05-18T10:19:33.848Z,44.58
2023-05-18T10:20:33.835Z,48.27
2023-05-18T10:21:33.825Z,45.84
2023-05-18T10:22:33.829Z,43.07
2023-05-18T10:23:33.805Z,49.36
2023-05-18T10:24:33.787Z,47.73
2023-05-18T10:25:33.783Z,43.27
2023-05-18T10:26:33.790Z,47.23
2023-05-18T10:27:33.761Z,45.89
2023-05-18T10:28:33.750Z,45.33
2023-05-18T10:29:33.739Z,49.53
2023-05-18T10:30:33.947Z,45.77
2023-05-18T10:31:33.778Z,48.34
2023-05-18T10:32:33.745Z,51.21
2023-05-18T10:33:33.747Z,46.92
2023-05-18T10:34:33.839Z,43.39
2023-05-18T10:35:33.675Z,46.16
2023-05-18T10:36:33.675Z,45.70
2023-05-18T10:37:33.653Z,50.15
2023-05-18T10:38:33.650Z,50.45
2023-05-18T10:39:33.640Z,46.05
2023-05-18T10:40:33.676Z,50.41
2023-05-18T10:41:33.631Z,50.53
2023-05-18T10:42:33.602Z,51.15
2023-05-18T10:43:34.595Z,43.71
2023-05-18T10:44:33.589Z,47.34
2023-05-18T10:45:33.589Z,46.10
2023-05-18T10:46:33.745Z,48.16
2023-05-18T10:47:33.810Z,47.57
2023-05-18T10:48:33.572Z,50.65
2023-05-18T10:49:33.548Z,48.16
2023-05-18T10:50:33.558Z,52.96
2023-05-18T10:51:33.520Z,50.52
2023-05-18T10:52:33.501Z,46.16
2023-05-18T10:53:33.498Z,46.57
2023-05-18T10:54:33.492Z,42.62
2023-05-18T10:55:33.490Z,42.49
2023-05-18T10:56:33.494Z,44.39
2023-05-18T10:57:33.454Z,41.77
2023-05-18T10:58:33.445Z,41.69
2023-05-18T10:59:33.453Z,45.45
2023-05-18T11:00:33.645Z,48.57
2023-05-18T11:01:33.425Z,46.74
2023-05-18T11:02:33.479Z,41.81
2023-05-18T11:03:33.430Z,47.55
2023-05-18T11:04:33.435Z,42.57
2023-05-18T11:05:33.398Z,41.75
2023-05-18T11:06:33.481Z,41.69
2023-05-18T11:07:33.350Z,44.18
2023-05-18T11:08:33.344Z,44.81
2023-05-18T11:09:33.343Z,41.99
2023-05-18T11:10:33.321Z,41.84
2023-05-18T11:11:33.308Z,47.18
2023-05-18T11:12:33.343Z,47.67
2023-05-18T11:13:33.285Z,50.01
2023-05-18T11:14:34.295Z,46.43
2023-05-18T11:15:33.276Z,47.05
2023-05-18T11:16:33.301Z,46.70
2023-05-18T11:17:33.343Z,49.63
2023-05-18T11:18:33.246Z,48.16
2023-05-18T11:19:33.242Z,43.75
2023-05-18T11:20:33.395Z,44.92
2023-05-18T11:21:33.212Z,44.20
2023-05-18T11:22:33.192Z,50.52
2023-05-18T11:23:33.209Z,48.13
2023-05-18T11:24:33.216Z,47.95
2023-05-18T11:25:33.177Z,44.75
2023-05-18T11:26:33.162Z,41.31
2023-05-18T11:27:33.150Z,44.93
2023-05-18T11:28:33.149Z,52.55
2023-05-18T11:29:33.126Z,45.10
2023-05-18T11:30:33.337Z,44.33
2023-05-18T11:31:33.149Z,46.57
2023-05-18T11:32:33.200Z,46.87
2023-05-18T11:33:33.168Z,46.11
2023-05-18T11:34:33.085Z,45.86
2023-05-18T11:35:33.067Z,42.98
2023-05-18T11:36:33.047Z,43.32
2023-05-18T11:37:33.108Z,46.00
2023-05-18T11:38:33.077Z,44.45
2023-05-18T11:39:33.261Z,45.10
2023-05-18T11:40:33.121Z,44.35
2023-05-18T11:41:33.025Z,46.17
2023-05-18T11:42:33.015Z,47.71
2023-05-18T11:43:32.984Z,49.06
2023-05-18T11:44:32.982Z,48.31
2023-05-18T11:45:32.967Z,49.64
2023-05-18T11:46:32.958Z,52.37
2023-05-18T11:47:32.974Z,50.10
2023-05-18T11:48:33.004Z,47.28
2023-05-18T11:49:32.923Z,45.51
2023-05-18T11:50:33.337Z,46.17
2023-05-18T11:51:32.920Z,44.96
2023-05-18T11:52:32.911Z,48.42
2023-05-18T11:53:32.887Z,47.45
2023-05-18T11:54:32.997Z,44.96
2023-05-18T11:55:32.874Z,45.33
2023-05-18T11:56:32.886Z,44.53
2023-05-18T11:57:32.888Z,41.16
2023-05-18T11:58:32.838Z,45.09
2023-05-18T11:59:32.827Z,47.45
2023-05-18T12:00:32.923Z,44.52
2023-05-18T12:01:32.822Z,43.30
2023-05-18T12:02:32.845Z,41.93
2023-05-18T12:03:32.882Z,48.37
2023-05-18T12:04:32.789Z,49.12
2023-05-18T12:05:32.768Z,46.89
2023-05-18T12:06:32.766Z,43.09
2023-05-18T12:07:32.798Z,46.20
2023-05-18T12:08:32.746Z,43.14
2023-05-18T12:09:32.726Z,41.57
2023-05-18T12:10:33.009Z,45.50
2023-05-18T12:11:32.742Z,49.12
2023-05-18T12:12:32.702Z,45.68
2023-05-18T12:13:32.682Z,50.13
2023-05-18T12:14:32.682Z,46.24
2023-05-18T12:15:32.663Z,43.82
2023-05-18T12:16:33.732Z,42.52
2023-05-18T12:17:32.712Z,46.56
2023-05-18T12:18:32.628Z,44.21
2023-05-18T12:19:32.683Z,44.88
2023-05-18T12:20:32.825Z,45.52
2023-05-18T12:21:32.609Z,43.71
2023-05-18T12:22:32.595Z,44.67
2023-05-18T12:23:32.588Z,40.86
2023-05-18T12:24:32.579Z,40.57
2023-05-18T12:25:32.698Z,46.01
2023-05-18T12:26:32.561Z,48.80
2023-05-18T12:27:32.614Z,49.04
2023-05-18T12:28:32.533Z,47.07
2023-05-18T12:29:32.558Z,44.44
2023-05-18T12:30:32.526Z,47.22
2023-05-18T12:31:32.611Z,44.82
2023-05-18T12:32:32.516Z,46.40
2023-05-18T12:33:32.486Z,48.03
2023-05-18T12:34:32.489Z,48.70
2023-05-18T12:35:32.962Z,46.97
2023-05-18T12:36:32.456Z,46.80
2023-05-18T12:37:41.606Z,45.67
2023-05-18T12:38:34.456Z,45.65
2023-05-18T12:39:32.433Z,42.23
2023-05-18T12:40:32.423Z,48.94
2023-05-18T12:41:32.424Z,47.17
2023-05-18T12:42:32.465Z,45.13
2023-05-18T12:43:32.399Z,48.06
2023-05-18T12:44:32.390Z,42.76
2023-05-18T12:45:32.731Z,47.82
2023-05-18T12:46:32.382Z,48.20
2023-05-18T12:47:32.404Z,42.10
2023-05-18T12:48:32.346Z,42.31
2023-05-18T12:49:32.326Z,41.89
2023-05-18T12:50:32.369Z,44.14
2023-05-18T12:51:32.315Z,46.53
2023-05-18T12:52:32.295Z,49.72